sensor_id;sensor_type;location;lat;lon;timestamp;temperature;humidity
80234;DHT22;69712;42.142;24.766;2023-06-24T00:01:28;25.10;53.00
80234;DHT22;69712;42.142;24.766;2023-06-24T00:03:54;24.70;53.70
80234;DHT22;69712;42.142;24.766;2023-06-24T00:06:23;24.80;53.80
80234;DHT22;69712;42.142;24.766;2023-06-24T00:08:52;24.90;54.10
80234;DHT22;69712;42.142;24.766;2023-06-24T00:11:18;24.90;53.90
80234;DHT22;69712;42.142;24.766;2023-06-24T00:13:44;24.70;54.00
80234;DHT22;69712;42.142;24.766;2023-06-24T00:16:10;24.80;54.00
80234;DHT22;69712;42.142;24.766;2023-06-24T00:18:37;24.70;54.50
80234;DHT22;69712;42.142;24.766;2023-06-24T00:21:06;24.70;53.60
80234;DHT22;69712;42.142;24.766;2023-06-24T00:23:32;24.70;53.70
80234;DHT22;69712;42.142;24.766;2023-06-24T00:26:01;24.70;53.40
80234;DHT22;69712;42.142;24.766;2023-06-24T00:28:27;24.70;53.10
80234;DHT22;69712;42.142;24.766;2023-06-24T00:30:53;24.60;53.10
80234;DHT22;69712;42.142;24.766;2023-06-24T00:33:19;24.50;52.90
80234;DHT22;69712;42.142;24.766;2023-06-24T00:35:45;24.40;53.10
80234;DHT22;69712;42.142;24.766;2023-06-24T00:38:11;24.40;53.30
80234;DHT22;69712;42.142;24.766;2023-06-24T00:40:37;24.30;53.80
80234;DHT22;69712;42.142;24.766;2023-06-24T00:43:05;24.30;53.60
80234;DHT22;69712;42.142;24.766;2023-06-24T00:45:31;24.20;54.10
80234;DHT22;69712;42.142;24.766;2023-06-24T00:47:58;24.20;54.20
80234;DHT22;69712;42.142;24.766;2023-06-24T00:50:24;24.10;54.40
80234;DHT22;69712;42.142;24.766;2023-06-24T00:52:50;23.90;54.70
80234;DHT22;69712;42.142;24.766;2023-06-24T00:55:16;23.90;54.50
80234;DHT22;69712;42.142;24.766;2023-06-24T00:57:47;24.00;53.90
80234;DHT22;69712;42.142;24.766;2023-06-24T01:00:17;23.80;54.00
80234;DHT22;69712;42.142;24.766;2023-06-24T01:02:44;23.90;53.30
80234;DHT22;69712;42.142;24.766;2023-06-24T01:05:11;23.80;53.70
80234;DHT22;69712;42.142;24.766;2023-06-24T01:07:43;23.80;53.70
80234;DHT22;69712;42.142;24.766;2023-06-24T01:10:10;23.50;54.20
80234;DHT22;69712;42.142;24.766;2023-06-24T01:12:39;23.50;54.00
80234;DHT22;69712;42.142;24.766;2023-06-24T01:15:06;23.40;53.30
80234;DHT22;69712;42.142;24.766;2023-06-24T01:17:44;23.50;53.20
80234;DHT22;69712;42.142;24.766;2023-06-24T01:20:36;23.40;52.20
80234;DHT22;69712;42.142;24.766;2023-06-24T01:23:42;23.40;51.50
80234;DHT22;69712;42.142;24.766;2023-06-24T01:26:24;23.40;51.30
80234;DHT22;69712;42.142;24.766;2023-06-24T01:29:09;23.30;51.20
80234;DHT22;69712;42.142;24.766;2023-06-24T01:31:48;23.20;51.40
80234;DHT22;69712;42.142;24.766;2023-06-24T01:34:52;23.10;51.60
80234;DHT22;69712;42.142;24.766;2023-06-24T01:37:28;23.00;52.00
80234;DHT22;69712;42.142;24.766;2023-06-24T01:42:44;23.30;50.50
80234;DHT22;69712;42.142;24.766;2023-06-24T01:45:15;23.20;50.60
80234;DHT22;69712;42.142;24.766;2023-06-24T01:47:44;23.10;50.90
80234;DHT22;69712;42.142;24.766;2023-06-24T01:50:12;23.10;51.10
80234;DHT22;69712;42.142;24.766;2023-06-24T01:52:41;23.10;50.90
80234;DHT22;69712;42.142;24.766;2023-06-24T01:55:11;23.10;51.40
80234;DHT22;69712;42.142;24.766;2023-06-24T01:57:40;23.10;51.40
80234;DHT22;69712;42.142;24.766;2023-06-24T02:00:08;22.90;51.60
80234;DHT22;69712;42.142;24.766;2023-06-24T02:02:36;23.10;51.60
80234;DHT22;69712;42.142;24.766;2023-06-24T02:05:03;23.00;51.50
80234;DHT22;69712;42.142;24.766;2023-06-24T02:07:31;22.90;51.90
80234;DHT22;69712;42.142;24.766;2023-06-24T02:09:59;22.90;52.10
80234;DHT22;69712;42.142;24.766;2023-06-24T02:12:26;22.90;52.10
80234;DHT22;69712;42.142;24.766;2023-06-24T02:14:55;23.00;51.80
80234;DHT22;69712;42.142;24.766;2023-06-24T02:17:24;22.90;51.80
80234;DHT22;69712;42.142;24.766;2023-06-24T02:19:50;23.00;51.80
80234;DHT22;69712;42.142;24.766;2023-06-24T02:22:17;23.00;51.40
80234;DHT22;69712;42.142;24.766;2023-06-24T02:24:43;23.00;51.30
80234;DHT22;69712;42.142;24.766;2023-06-24T02:27:10;22.80;51.50
80234;DHT22;69712;42.142;24.766;2023-06-24T02:29:37;22.90;51.60
80234;DHT22;69712;42.142;24.766;2023-06-24T02:32:05;22.90;51.50
80234;DHT22;69712;42.142;24.766;2023-06-24T02:34:31;22.80;51.70
80234;DHT22;69712;42.142;24.766;2023-06-24T02:36:57;22.80;51.80
80234;DHT22;69712;42.142;24.766;2023-06-24T02:39:23;22.90;51.70
80234;DHT22;69712;42.142;24.766;2023-06-24T02:41:49;22.90;51.70
80234;DHT22;69712;42.142;24.766;2023-06-24T02:44:15;22.80;51.60
80234;DHT22;69712;42.142;24.766;2023-06-24T02:46:43;22.80;52.20
80234;DHT22;69712;42.142;24.766;2023-06-24T02:49:11;22.80;51.70
80234;DHT22;69712;42.142;24.766;2023-06-24T02:51:38;23.00;51.40
80234;DHT22;69712;42.142;24.766;2023-06-24T02:54:05;23.10;51.20
80234;DHT22;69712;42.142;24.766;2023-06-24T02:56:31;23.10;50.70
80234;DHT22;69712;42.142;24.766;2023-06-24T02:58:57;23.10;50.90
80234;DHT22;69712;42.142;24.766;2023-06-24T03:01:24;23.10;51.00
80234;DHT22;69712;42.142;24.766;2023-06-24T03:03:55;23.10;51.20
80234;DHT22;69712;42.142;24.766;2023-06-24T03:06:21;22.90;51.50
80234;DHT22;69712;42.142;24.766;2023-06-24T03:08:48;23.00;51.30
80234;DHT22;69712;42.142;24.766;2023-06-24T03:11:15;22.90;51.60
80234;DHT22;69712;42.142;24.766;2023-06-24T03:13:41;22.90;51.80
80234;DHT22;69712;42.142;24.766;2023-06-24T03:16:07;22.80;51.60
80234;DHT22;69712;42.142;24.766;2023-06-24T03:18:41;22.90;51.60
80234;DHT22;69712;42.142;24.766;2023-06-24T03:21:07;23.10;51.60
80234;DHT22;69712;42.142;24.766;2023-06-24T03:23:33;22.90;51.20
80234;DHT22;69712;42.142;24.766;2023-06-24T03:25:59;22.90;51.60
80234;DHT22;69712;42.142;24.766;2023-06-24T03:28:24;22.80;51.80
80234;DHT22;69712;42.142;24.766;2023-06-24T03:30:50;22.90;51.40
80234;DHT22;69712;42.142;24.766;2023-06-24T03:33:16;22.80;51.90
80234;DHT22;69712;42.142;24.766;2023-06-24T03:35:45;22.90;52.00
80234;DHT22;69712;42.142;24.766;2023-06-24T03:38:10;22.80;51.70
80234;DHT22;69712;42.142;24.766;2023-06-24T03:40:37;22.80;51.50
80234;DHT22;69712;42.142;24.766;2023-06-24T03:43:03;22.80;51.70
80234;DHT22;69712;42.142;24.766;2023-06-24T03:45:28;22.90;51.80
80234;DHT22;69712;42.142;24.766;2023-06-24T03:47:54;22.80;51.30
80234;DHT22;69712;42.142;24.766;2023-06-24T03:50:20;22.90;51.10
80234;DHT22;69712;42.142;24.766;2023-06-24T03:52:45;22.80;51.70
80234;DHT22;69712;42.142;24.766;2023-06-24T03:55:11;22.60;51.50
80234;DHT22;69712;42.142;24.766;2023-06-24T03:57:37;22.80;51.10
80234;DHT22;69712;42.142;24.766;2023-06-24T04:00:04;22.60;51.70
80234;DHT22;69712;42.142;24.766;2023-06-24T04:02:43;22.50;52.10
80234;DHT22;69712;42.142;24.766;2023-06-24T04:05:09;22.60;51.60
80234;DHT22;69712;42.142;24.766;2023-06-24T04:07:35;22.70;51.20
80234;DHT22;69712;42.142;24.766;2023-06-24T04:10:03;22.30;52.20
80234;DHT22;69712;42.142;24.766;2023-06-24T04:12:38;22.50;51.90
80234;DHT22;69712;42.142;24.766;2023-06-24T04:15:04;22.30;51.80
80234;DHT22;69712;42.142;24.766;2023-06-24T04:17:30;22.30;51.90
80234;DHT22;69712;42.142;24.766;2023-06-24T04:19:56;22.20;52.10
80234;DHT22;69712;42.142;24.766;2023-06-24T04:22:23;22.30;53.20
80234;DHT22;69712;42.142;24.766;2023-06-24T04:24:48;22.30;52.00
80234;DHT22;69712;42.142;24.766;2023-06-24T04:27:14;22.60;51.50
80234;DHT22;69712;42.142;24.766;2023-06-24T04:29:40;22.80;51.00
80234;DHT22;69712;42.142;24.766;2023-06-24T04:32:06;22.80;51.00
80234;DHT22;69712;42.142;24.766;2023-06-24T04:34:32;22.90;50.50
80234;DHT22;69712;42.142;24.766;2023-06-24T04:36:58;22.90;50.60
80234;DHT22;69712;42.142;24.766;2023-06-24T04:39:23;23.00;49.80
80234;DHT22;69712;42.142;24.766;2023-06-24T04:41:49;23.00;50.10
80234;DHT22;69712;42.142;24.766;2023-06-24T04:44:15;22.90;49.80
80234;DHT22;69712;42.142;24.766;2023-06-24T04:46:41;22.70;50.60
80234;DHT22;69712;42.142;24.766;2023-06-24T04:49:06;22.80;51.00
80234;DHT22;69712;42.142;24.766;2023-06-24T04:51:32;22.90;50.50
80234;DHT22;69712;42.142;24.766;2023-06-24T04:53:58;23.00;50.80
80234;DHT22;69712;42.142;24.766;2023-06-24T04:56:24;23.20;51.90
80234;DHT22;69712;42.142;24.766;2023-06-24T04:58:51;23.30;49.80
80234;DHT22;69712;42.142;24.766;2023-06-24T05:01:17;23.50;49.70
80234;DHT22;69712;42.142;24.766;2023-06-24T05:03:43;23.30;49.60
80234;DHT22;69712;42.142;24.766;2023-06-24T05:06:09;23.30;50.50
80234;DHT22;69712;42.142;24.766;2023-06-24T05:08:34;23.40;50.50
80234;DHT22;69712;42.142;24.766;2023-06-24T05:11:00;23.70;49.20
80234;DHT22;69712;42.142;24.766;2023-06-24T05:13:27;23.80;48.90
80234;DHT22;69712;42.142;24.766;2023-06-24T05:15:53;23.70;48.40
80234;DHT22;69712;42.142;24.766;2023-06-24T05:18:19;23.50;49.00
80234;DHT22;69712;42.142;24.766;2023-06-24T05:20:44;23.70;49.30
80234;DHT22;69712;42.142;24.766;2023-06-24T05:23:10;23.70;49.80
80234;DHT22;69712;42.142;24.766;2023-06-24T05:25:36;23.80;49.50
80234;DHT22;69712;42.142;24.766;2023-06-24T05:28:02;23.90;48.90
80234;DHT22;69712;42.142;24.766;2023-06-24T05:30:28;23.80;49.10
80234;DHT22;69712;42.142;24.766;2023-06-24T05:32:53;23.90;48.70
80234;DHT22;69712;42.142;24.766;2023-06-24T05:35:19;24.20;47.70
80234;DHT22;69712;42.142;24.766;2023-06-24T05:37:45;24.60;47.90
80234;DHT22;69712;42.142;24.766;2023-06-24T05:40:11;24.80;46.60
80234;DHT22;69712;42.142;24.766;2023-06-24T05:42:38;25.10;46.00
80234;DHT22;69712;42.142;24.766;2023-06-24T05:45:05;25.30;45.40
80234;DHT22;69712;42.142;24.766;2023-06-24T05:47:32;25.50;45.30
80234;DHT22;69712;42.142;24.766;2023-06-24T05:49:58;25.60;45.30
80234;DHT22;69712;42.142;24.766;2023-06-24T05:52:24;25.60;44.80
80234;DHT22;69712;42.142;24.766;2023-06-24T05:54:49;25.70;44.70
80234;DHT22;69712;42.142;24.766;2023-06-24T05:57:15;26.00;44.00
80234;DHT22;69712;42.142;24.766;2023-06-24T05:59:41;25.60;44.50
80234;DHT22;69712;42.142;24.766;2023-06-24T06:02:07;25.90;43.80
80234;DHT22;69712;42.142;24.766;2023-06-24T06:04:33;26.00;43.40
80234;DHT22;69712;42.142;24.766;2023-06-24T06:06:58;26.10;43.30
80234;DHT22;69712;42.142;24.766;2023-06-24T06:09:24;26.00;43.90
80234;DHT22;69712;42.142;24.766;2023-06-24T06:11:50;25.70;44.40
80234;DHT22;69712;42.142;24.766;2023-06-24T06:14:15;25.80;44.50
80234;DHT22;69712;42.142;24.766;2023-06-24T06:16:41;26.00;44.30
80234;DHT22;69712;42.142;24.766;2023-06-24T06:19:07;26.20;43.80
80234;DHT22;69712;42.142;24.766;2023-06-24T06:21:32;26.20;44.10
80234;DHT22;69712;42.142;24.766;2023-06-24T06:23:58;26.10;44.10
80234;DHT22;69712;42.142;24.766;2023-06-24T06:26:24;26.00;44.80
80234;DHT22;69712;42.142;24.766;2023-06-24T06:28:49;26.20;45.30
80234;DHT22;69712;42.142;24.766;2023-06-24T06:31:16;26.60;44.80
80234;DHT22;69712;42.142;24.766;2023-06-24T06:33:43;27.10;43.50
80234;DHT22;69712;42.142;24.766;2023-06-24T06:36:09;27.80;42.80
80234;DHT22;69712;42.142;24.766;2023-06-24T06:38:35;28.60;42.10
80234;DHT22;69712;42.142;24.766;2023-06-24T06:41:00;29.40;40.40
80234;DHT22;69712;42.142;24.766;2023-06-24T06:43:26;28.80;45.10
80234;DHT22;69712;42.142;24.766;2023-06-24T06:45:52;30.50;43.50
80234;DHT22;69712;42.142;24.766;2023-06-24T06:48:18;31.70;37.00
80234;DHT22;69712;42.142;24.766;2023-06-24T06:50:45;33.80;36.10
80234;DHT22;69712;42.142;24.766;2023-06-24T06:53:10;34.30;34.40
80234;DHT22;69712;42.142;24.766;2023-06-24T06:55:37;35.30;30.90
80234;DHT22;69712;42.142;24.766;2023-06-24T06:58:05;36.60;29.50
80234;DHT22;69712;42.142;24.766;2023-06-24T07:00:31;37.80;27.80
80234;DHT22;69712;42.142;24.766;2023-06-24T07:02:57;38.30;28.20
80234;DHT22;69712;42.142;24.766;2023-06-24T07:05:22;39.00;28.10
80234;DHT22;69712;42.142;24.766;2023-06-24T07:07:48;39.60;28.20
80234;DHT22;69712;42.142;24.766;2023-06-24T07:10:15;39.20;27.70
80234;DHT22;69712;42.142;24.766;2023-06-24T07:12:42;39.90;25.70
80234;DHT22;69712;42.142;24.766;2023-06-24T07:15:08;40.70;25.00
80234;DHT22;69712;42.142;24.766;2023-06-24T07:17:34;41.40;24.30
80234;DHT22;69712;42.142;24.766;2023-06-24T07:20:00;41.60;25.10
80234;DHT22;69712;42.142;24.766;2023-06-24T07:22:25;41.50;25.20
80234;DHT22;69712;42.142;24.766;2023-06-24T07:24:51;41.50;24.00
80234;DHT22;69712;42.142;24.766;2023-06-24T07:27:17;41.60;24.30
80234;DHT22;69712;42.142;24.766;2023-06-24T07:29:43;39.80;25.30
80234;DHT22;69712;42.142;24.766;2023-06-24T07:32:08;39.70;24.80
80234;DHT22;69712;42.142;24.766;2023-06-24T07:34:34;40.40;24.60
80234;DHT22;69712;42.142;24.766;2023-06-24T07:37:00;39.70;26.20
80234;DHT22;69712;42.142;24.766;2023-06-24T07:39:25;38.60;25.70
80234;DHT22;69712;42.142;24.766;2023-06-24T07:41:51;38.00;26.90
80234;DHT22;69712;42.142;24.766;2023-06-24T07:44:17;37.50;27.00
80234;DHT22;69712;42.142;24.766;2023-06-24T07:46:44;37.40;27.50
80234;DHT22;69712;42.142;24.766;2023-06-24T07:49:10;37.90;28.10
80234;DHT22;69712;42.142;24.766;2023-06-24T07:51:36;38.90;25.40
80234;DHT22;69712;42.142;24.766;2023-06-24T07:54:01;39.30;25.70
80234;DHT22;69712;42.142;24.766;2023-06-24T07:56:27;40.30;24.70
80234;DHT22;69712;42.142;24.766;2023-06-24T07:58:53;40.80;24.30
80234;DHT22;69712;42.142;24.766;2023-06-24T08:01:18;39.90;25.70
80234;DHT22;69712;42.142;24.766;2023-06-24T08:03:44;40.10;24.50
80234;DHT22;69712;42.142;24.766;2023-06-24T08:06:10;40.30;24.30
80234;DHT22;69712;42.142;24.766;2023-06-24T08:08:35;41.50;23.60
80234;DHT22;69712;42.142;24.766;2023-06-24T08:11:03;42.70;22.20
80234;DHT22;69712;42.142;24.766;2023-06-24T08:13:29;41.80;22.40
80234;DHT22;69712;42.142;24.766;2023-06-24T08:15:54;42.20;22.20
80234;DHT22;69712;42.142;24.766;2023-06-24T08:18:20;43.10;21.70
80234;DHT22;69712;42.142;24.766;2023-06-24T08:20:46;42.00;21.30
80234;DHT22;69712;42.142;24.766;2023-06-24T08:23:12;43.30;21.60
80234;DHT22;69712;42.142;24.766;2023-06-24T08:25:38;44.20;21.00
80234;DHT22;69712;42.142;24.766;2023-06-24T08:28:03;44.60;20.40
80234;DHT22;69712;42.142;24.766;2023-06-24T08:30:29;45.30;19.90
80234;DHT22;69712;42.142;24.766;2023-06-24T08:32:55;45.30;19.90
80234;DHT22;69712;42.142;24.766;2023-06-24T08:35:21;45.50;19.90
80234;DHT22;69712;42.142;24.766;2023-06-24T08:37:47;45.40;20.00
80234;DHT22;69712;42.142;24.766;2023-06-24T08:40:12;44.60;21.20
80234;DHT22;69712;42.142;24.766;2023-06-24T08:42:38;45.60;19.90
80234;DHT22;69712;42.142;24.766;2023-06-24T08:45:04;45.10;19.80
80234;DHT22;69712;42.142;24.766;2023-06-24T08:47:30;42.90;21.60
80234;DHT22;69712;42.142;24.766;2023-06-24T08:50:03;42.70;22.10
80234;DHT22;69712;42.142;24.766;2023-06-24T08:52:32;43.90;20.40
80234;DHT22;69712;42.142;24.766;2023-06-24T08:55:01;42.70;21.00
80234;DHT22;69712;42.142;24.766;2023-06-24T08:57:27;41.90;21.80
80234;DHT22;69712;42.142;24.766;2023-06-24T08:59:53;42.10;22.30
80234;DHT22;69712;42.142;24.766;2023-06-24T09:02:19;42.10;22.70
80234;DHT22;69712;42.142;24.766;2023-06-24T09:04:45;39.60;23.60
80234;DHT22;69712;42.142;24.766;2023-06-24T09:07:11;39.30;23.70
80234;DHT22;69712;42.142;24.766;2023-06-24T09:09:44;38.70;24.50
80234;DHT22;69712;42.142;24.766;2023-06-24T09:12:12;39.20;24.50
80234;DHT22;69712;42.142;24.766;2023-06-24T09:14:38;39.30;24.70
80234;DHT22;69712;42.142;24.766;2023-06-24T09:17:04;40.70;23.80
80234;DHT22;69712;42.142;24.766;2023-06-24T09:19:30;42.10;23.30
80234;DHT22;69712;42.142;24.766;2023-06-24T09:22:06;42.10;22.70
80234;DHT22;69712;42.142;24.766;2023-06-24T09:24:35;40.30;22.90
80234;DHT22;69712;42.142;24.766;2023-06-24T09:27:02;38.70;24.90
80234;DHT22;69712;42.142;24.766;2023-06-24T09:29:33;39.30;24.60
80234;DHT22;69712;42.142;24.766;2023-06-24T09:31:59;40.80;24.90
80234;DHT22;69712;42.142;24.766;2023-06-24T09:34:28;42.20;22.50
80234;DHT22;69712;42.142;24.766;2023-06-24T09:36:58;43.70;21.30
80234;DHT22;69712;42.142;24.766;2023-06-24T09:39:25;44.00;20.40
80234;DHT22;69712;42.142;24.766;2023-06-24T09:41:59;44.00;20.30
80234;DHT22;69712;42.142;24.766;2023-06-24T09:44:26;43.50;21.20
80234;DHT22;69712;42.142;24.766;2023-06-24T09:46:52;43.50;21.40
80234;DHT22;69712;42.142;24.766;2023-06-24T09:49:18;44.70;20.40
80234;DHT22;69712;42.142;24.766;2023-06-24T09:51:49;43.80;20.40
80234;DHT22;69712;42.142;24.766;2023-06-24T09:54:16;44.40;20.40
80234;DHT22;69712;42.142;24.766;2023-06-24T09:56:49;45.70;19.70
80234;DHT22;69712;42.142;24.766;2023-06-24T09:59:17;44.10;20.60
80234;DHT22;69712;42.142;24.766;2023-06-24T10:01:46;42.20;22.00
80234;DHT22;69712;42.142;24.766;2023-06-24T10:04:17;42.20;22.70
80234;DHT22;69712;42.142;24.766;2023-06-24T10:06:43;39.00;24.50
80234;DHT22;69712;42.142;24.766;2023-06-24T10:09:09;39.50;24.80
80234;DHT22;69712;42.142;24.766;2023-06-24T10:11:35;38.50;25.40
80234;DHT22;69712;42.142;24.766;2023-06-24T10:14:01;37.50;26.10
80234;DHT22;69712;42.142;24.766;2023-06-24T10:16:27;37.80;26.10
80234;DHT22;69712;42.142;24.766;2023-06-24T10:19:00;38.50;24.90
80234;DHT22;69712;42.142;24.766;2023-06-24T10:21:51;38.00;25.40
80234;DHT22;69712;42.142;24.766;2023-06-24T10:24:32;37.40;25.30
80234;DHT22;69712;42.142;24.766;2023-06-24T10:27:03;37.50;26.10
80234;DHT22;69712;42.142;24.766;2023-06-24T10:32:07;40.90;22.80
80234;DHT22;69712;42.142;24.766;2023-06-24T10:34:41;41.80;22.70
80234;DHT22;69712;42.142;24.766;2023-06-24T10:37:19;41.70;22.50
80234;DHT22;69712;42.142;24.766;2023-06-24T10:50:05;43.80;21.10
80234;DHT22;69712;42.142;24.766;2023-06-24T10:52:32;42.90;21.50
80234;DHT22;69712;42.142;24.766;2023-06-24T10:54:59;42.60;21.40
80234;DHT22;69712;42.142;24.766;2023-06-24T10:57:26;40.50;22.60
80234;DHT22;69712;42.142;24.766;2023-06-24T10:59:54;41.70;22.80
80234;DHT22;69712;42.142;24.766;2023-06-24T11:02:22;43.50;21.30
80234;DHT22;69712;42.142;24.766;2023-06-24T11:04:53;42.90;21.50
80234;DHT22;69712;42.142;24.766;2023-06-24T11:07:44;43.30;21.60
80234;DHT22;69712;42.142;24.766;2023-06-24T11:10:14;42.50;22.40
80234;DHT22;69712;42.142;24.766;2023-06-24T11:12:41;43.30;21.50
80234;DHT22;69712;42.142;24.766;2023-06-24T11:15:08;43.80;20.90
80234;DHT22;69712;42.142;24.766;2023-06-24T11:17:35;43.40;21.50
80234;DHT22;69712;42.142;24.766;2023-06-24T11:20:02;42.50;22.40
80234;DHT22;69712;42.142;24.766;2023-06-24T11:22:35;40.70;24.10
80234;DHT22;69712;42.142;24.766;2023-06-24T11:25:01;42.10;23.10
80234;DHT22;69712;42.142;24.766;2023-06-24T11:27:30;41.50;23.50
80234;DHT22;69712;42.142;24.766;2023-06-24T11:30:00;41.00;23.90
80234;DHT22;69712;42.142;24.766;2023-06-24T11:32:38;40.60;23.70
80234;DHT22;69712;42.142;24.766;2023-06-24T11:35:09;39.20;24.40
80234;DHT22;69712;42.142;24.766;2023-06-24T11:37:36;39.60;24.60
80234;DHT22;69712;42.142;24.766;2023-06-24T11:40:08;37.80;25.90
80234;DHT22;69712;42.142;24.766;2023-06-24T11:42:39;37.40;26.50
80234;DHT22;69712;42.142;24.766;2023-06-24T11:45:11;37.60;27.20
80234;DHT22;69712;42.142;24.766;2023-06-24T11:47:38;39.00;26.20
80234;DHT22;69712;42.142;24.766;2023-06-24T11:50:05;38.60;25.70
80234;DHT22;69712;42.142;24.766;2023-06-24T11:52:47;38.80;25.50
80234;DHT22;69712;42.142;24.766;2023-06-24T11:55:18;40.00;24.60
80234;DHT22;69712;42.142;24.766;2023-06-24T11:57:58;41.90;22.90
80234;DHT22;69712;42.142;24.766;2023-06-24T12:00:30;43.10;22.00
80234;DHT22;69712;42.142;24.766;2023-06-24T12:03:01;40.30;23.70
80234;DHT22;69712;42.142;24.766;2023-06-24T12:05:32;39.40;25.20
80234;DHT22;69712;42.142;24.766;2023-06-24T12:08:00;40.70;24.00
80234;DHT22;69712;42.142;24.766;2023-06-24T12:10:26;42.00;23.10
80234;DHT22;69712;42.142;24.766;2023-06-24T12:12:52;41.60;23.10
80234;DHT22;69712;42.142;24.766;2023-06-24T12:15:19;40.70;23.80
80234;DHT22;69712;42.142;24.766;2023-06-24T12:17:44;39.60;23.50
80234;DHT22;69712;42.142;24.766;2023-06-24T12:20:11;40.10;24.00
80234;DHT22;69712;42.142;24.766;2023-06-24T12:22:39;40.50;23.70
80234;DHT22;69712;42.142;24.766;2023-06-24T12:25:05;40.10;23.70
80234;DHT22;69712;42.142;24.766;2023-06-24T12:27:30;38.30;24.80
80234;DHT22;69712;42.142;24.766;2023-06-24T12:29:56;37.10;26.90
80234;DHT22;69712;42.142;24.766;2023-06-24T12:32:22;36.80;27.00
80234;DHT22;69712;42.142;24.766;2023-06-24T12:34:47;37.40;26.70
80234;DHT22;69712;42.142;24.766;2023-06-24T12:37:13;36.80;26.90
80234;DHT22;69712;42.142;24.766;2023-06-24T12:39:39;37.00;27.10
80234;DHT22;69712;42.142;24.766;2023-06-24T12:42:05;37.60;26.30
80234;DHT22;69712;42.142;24.766;2023-06-24T12:44:31;37.40;26.20
80234;DHT22;69712;42.142;24.766;2023-06-24T12:46:57;36.80;26.20
80234;DHT22;69712;42.142;24.766;2023-06-24T12:49:23;36.60;26.40
80234;DHT22;69712;42.142;24.766;2023-06-24T12:51:48;37.50;25.80
80234;DHT22;69712;42.142;24.766;2023-06-24T12:54:14;39.40;24.50
80234;DHT22;69712;42.142;24.766;2023-06-24T12:56:40;39.00;24.30
80234;DHT22;69712;42.142;24.766;2023-06-24T12:59:06;38.70;25.30
80234;DHT22;69712;42.142;24.766;2023-06-24T13:01:31;37.90;25.40
80234;DHT22;69712;42.142;24.766;2023-06-24T13:03:57;37.90;25.40
80234;DHT22;69712;42.142;24.766;2023-06-24T13:06:24;38.20;25.50
80234;DHT22;69712;42.142;24.766;2023-06-24T13:08:49;39.00;24.70
80234;DHT22;69712;42.142;24.766;2023-06-24T13:11:15;39.40;24.60
80234;DHT22;69712;42.142;24.766;2023-06-24T13:13:41;40.50;23.90
80234;DHT22;69712;42.142;24.766;2023-06-24T13:16:06;40.10;23.90
80234;DHT22;69712;42.142;24.766;2023-06-24T13:18:32;39.30;24.60
80234;DHT22;69712;42.142;24.766;2023-06-24T13:20:58;39.60;24.50
80234;DHT22;69712;42.142;24.766;2023-06-24T13:23:23;39.30;24.40
80234;DHT22;69712;42.142;24.766;2023-06-24T13:25:49;38.70;25.00
80234;DHT22;69712;42.142;24.766;2023-06-24T13:28:15;37.20;25.90
80234;DHT22;69712;42.142;24.766;2023-06-24T13:30:40;36.40;27.00
80234;DHT22;69712;42.142;24.766;2023-06-24T13:33:08;35.90;27.90
80234;DHT22;69712;42.142;24.766;2023-06-24T13:35:33;35.50;28.50
80234;DHT22;69712;42.142;24.766;2023-06-24T13:37:59;35.10;28.70
80234;DHT22;69712;42.142;24.766;2023-06-24T13:40:25;34.70;29.00
80234;DHT22;69712;42.142;24.766;2023-06-24T13:42:51;34.70;29.40
80234;DHT22;69712;42.142;24.766;2023-06-24T13:45:16;34.50;29.30
80234;DHT22;69712;42.142;24.766;2023-06-24T13:47:42;34.30;29.70
80234;DHT22;69712;42.142;24.766;2023-06-24T13:50:08;34.10;29.70
80234;DHT22;69712;42.142;24.766;2023-06-24T13:52:34;33.80;29.60
80234;DHT22;69712;42.142;24.766;2023-06-24T13:55:00;33.60;30.00
80234;DHT22;69712;42.142;24.766;2023-06-24T13:57:26;33.30;31.10
80234;DHT22;69712;42.142;24.766;2023-06-24T13:59:51;33.20;30.30
80234;DHT22;69712;42.142;24.766;2023-06-24T14:02:17;33.50;30.70
80234;DHT22;69712;42.142;24.766;2023-06-24T14:04:44;33.50;30.50
80234;DHT22;69712;42.142;24.766;2023-06-24T14:07:10;33.40;30.80
80234;DHT22;69712;42.142;24.766;2023-06-24T14:09:37;33.40;30.80
80234;DHT22;69712;42.142;24.766;2023-06-24T14:12:04;33.20;30.80
80234;DHT22;69712;42.142;24.766;2023-06-24T14:14:30;33.20;30.80
80234;DHT22;69712;42.142;24.766;2023-06-24T14:16:55;33.20;30.50
80234;DHT22;69712;42.142;24.766;2023-06-24T14:19:21;33.20;31.00
80234;DHT22;69712;42.142;24.766;2023-06-24T14:21:47;33.30;30.30
80234;DHT22;69712;42.142;24.766;2023-06-24T14:24:13;33.30;30.60
80234;DHT22;69712;42.142;24.766;2023-06-24T14:26:39;33.20;30.80
80234;DHT22;69712;42.142;24.766;2023-06-24T14:29:05;33.20;31.50
80234;DHT22;69712;42.142;24.766;2023-06-24T14:31:30;33.30;30.70
80234;DHT22;69712;42.142;24.766;2023-06-24T14:33:56;33.40;30.70
80234;DHT22;69712;42.142;24.766;2023-06-24T14:36:22;33.50;31.20
80234;DHT22;69712;42.142;24.766;2023-06-24T14:38:47;33.50;30.90
80234;DHT22;69712;42.142;24.766;2023-06-24T14:41:13;33.40;30.30
80234;DHT22;69712;42.142;24.766;2023-06-24T14:43:39;33.50;30.60
80234;DHT22;69712;42.142;24.766;2023-06-24T14:46:04;33.50;30.50
80234;DHT22;69712;42.142;24.766;2023-06-24T14:48:30;33.40;30.20
80234;DHT22;69712;42.142;24.766;2023-06-24T14:50:59;33.40;30.10
80234;DHT22;69712;42.142;24.766;2023-06-24T14:53:24;33.30;30.50
80234;DHT22;69712;42.142;24.766;2023-06-24T14:55:50;33.30;30.80
80234;DHT22;69712;42.142;24.766;2023-06-24T14:58:16;33.30;30.00
80234;DHT22;69712;42.142;24.766;2023-06-24T15:01:00;33.40;30.00
80234;DHT22;69712;42.142;24.766;2023-06-24T15:03:26;33.40;29.20
80234;DHT22;69712;42.142;24.766;2023-06-24T15:05:54;33.40;29.20
80234;DHT22;69712;42.142;24.766;2023-06-24T15:08:20;32.90;29.40
80234;DHT22;69712;42.142;24.766;2023-06-24T15:10:46;32.70;30.40
80234;DHT22;69712;42.142;24.766;2023-06-24T15:13:12;32.70;30.50
80234;DHT22;69712;42.142;24.766;2023-06-24T15:15:37;32.50;30.10
80234;DHT22;69712;42.142;24.766;2023-06-24T15:18:03;32.60;30.00
80234;DHT22;69712;42.142;24.766;2023-06-24T15:20:29;32.50;30.10
80234;DHT22;69712;42.142;24.766;2023-06-24T15:22:54;32.30;30.20
80234;DHT22;69712;42.142;24.766;2023-06-24T15:25:20;32.20;31.10
80234;DHT22;69712;42.142;24.766;2023-06-24T15:27:46;32.20;30.60
80234;DHT22;69712;42.142;24.766;2023-06-24T15:30:12;32.10;30.60
80234;DHT22;69712;42.142;24.766;2023-06-24T15:32:37;32.10;31.00